createdAt,value
2018-06-01T00:00:52.318Z,17.53
2018-06-01T00:03:21.047Z,17.50
2018-06-01T00:05:49.425Z,17.51
2018-06-01T00:08:17.801Z,17.53
2018-06-01T00:10:46.346Z,17.50
2018-06-01T00:13:14.658Z,17.59
2018-06-01T00:15:42.966Z,17.54
2018-06-01T00:18:11.341Z,17.60
2018-06-01T00:20:39.657Z,17.59
2018-06-01T00:23:08.016Z,17.52
2018-06-01T00:25:37.101Z,17.44
2018-06-01T00:28:05.432Z,17.54
2018-06-01T00:30:33.758Z,17.49
2018-06-01T00:33:02.097Z,17.49
2018-06-01T00:35:30.418Z,17.55
2018-06-01T00:37:58.834Z,17.51
2018-06-01T00:40:27.541Z,17.44
2018-06-01T00:42:55.877Z,17.44
2018-06-01T00:45:24.217Z,17.46
2018-06-01T00:47:52.627Z,17.30
2018-06-01T00:50:20.983Z,17.33
2018-06-01T00:52:49.412Z,17.27
2018-06-01T00:55:24.565Z,17.26
2018-06-01T00:57:52.951Z,17.19
2018-06-01T01:00:21.347Z,17.17
2018-06-01T01:02:50.289Z,17.19
2018-06-01T01:05:18.726Z,17.10
2018-06-01T01:07:47.114Z,17.05
2018-06-01T01:10:15.993Z,17.05
2018-06-01T01:12:44.296Z,16.98
2018-06-01T01:15:12.632Z,16.93
2018-06-01T01:17:40.969Z,16.90
2018-06-01T01:20:09.309Z,16.90
2018-06-01T01:22:37.677Z,16.86
2018-06-01T01:25:06.872Z,16.85
2018-06-01T01:27:35.187Z,16.92
2018-06-01T01:30:03.553Z,16.83
2018-06-01T01:32:32.717Z,16.79
2018-06-01T01:35:01.043Z,16.79
2018-06-01T01:37:33.240Z,16.87
2018-06-01T01:40:01.590Z,16.90
2018-06-01T01:42:29.889Z,16.88
2018-06-01T01:44:58.493Z,16.91
2018-06-01T01:47:26.793Z,16.89
2018-06-01T01:49:55.177Z,16.92
2018-06-01T01:52:23.780Z,16.84
2018-06-01T01:54:52.890Z,16.87
2018-06-01T01:57:21.219Z,16.80
2018-06-01T01:59:49.572Z,16.81
2018-06-01T02:02:18.144Z,16.75
2018-06-01T02:04:46.457Z,16.72
2018-06-01T02:07:14.852Z,16.71
2018-06-01T02:09:43.166Z,16.69
2018-06-01T02:12:11.639Z,16.60
2018-06-01T02:14:40.767Z,16.54
2018-06-01T02:17:09.081Z,16.55
2018-06-01T02:19:37.414Z,16.53
2018-06-01T02:22:05.830Z,16.57
2018-06-01T02:24:34.135Z,16.54
2018-06-01T02:27:02.445Z,16.55
2018-06-01T02:29:31.674Z,16.54
2018-06-01T02:31:59.987Z,16.52
2018-06-01T02:34:28.319Z,16.55
2018-06-01T02:36:57.129Z,16.63
2018-06-01T02:39:25.443Z,16.51
2018-06-01T02:41:53.792Z,16.52
2018-06-01T02:44:22.163Z,16.57
2018-06-01T02:46:50.548Z,16.49
2018-06-01T02:49:18.918Z,16.53
2018-06-01T02:51:47.398Z,16.53
2018-06-01T02:54:15.710Z,16.56
2018-06-01T02:56:44.066Z,16.59
2018-06-01T02:59:12.408Z,16.64
2018-06-01T03:01:40.741Z,16.58
2018-06-01T03:04:09.075Z,16.58
2018-06-01T03:06:49.149Z,16.65
2018-06-01T03:09:17.445Z,16.68
2018-06-01T03:11:46.674Z,16.68
2018-06-01T03:14:15.202Z,16.64
2018-06-01T03:16:43.543Z,16.56
2018-06-01T03:19:11.867Z,16.66
2018-06-01T03:21:40.440Z,16.68
2018-06-01T03:24:08.737Z,16.75
2018-06-01T03:26:37.046Z,16.59
2018-06-01T03:29:05.586Z,16.66
2018-06-01T03:31:33.910Z,16.79
2018-06-01T03:34:02.223Z,16.83
2018-06-01T03:36:30.559Z,16.79
2018-06-01T03:38:58.889Z,16.76
2018-06-01T03:41:27.203Z,16.73
2018-06-01T03:43:55.610Z,16.77
2018-06-01T03:46:23.940Z,16.80
2018-06-01T03:48:52.264Z,16.82
2018-06-01T03:51:20.633Z,16.77
2018-06-01T03:53:48.961Z,16.83
2018-06-01T03:56:17.317Z,16.88
2018-06-01T03:58:45.940Z,16.85
2018-06-01T04:01:14.232Z,16.87
2018-06-01T04:03:42.568Z,16.84
2018-06-01T04:06:10.917Z,16.94
2018-06-01T04:08:39.215Z,16.89
2018-06-01T04:11:07.523Z,16.92
2018-06-01T04:13:35.979Z,17.01
2018-06-01T04:16:04.287Z,17.04
2018-06-01T04:18:32.640Z,17.06
2018-06-01T04:21:00.953Z,17.02
2018-06-01T04:23:29.278Z,16.95
2018-06-01T04:25:57.610Z,17.01
2018-06-01T04:28:26.109Z,16.95
2018-06-01T04:30:54.438Z,17.02
2018-06-01T04:33:22.765Z,17.14
2018-06-01T04:35:51.897Z,17.12
2018-06-01T04:38:20.205Z,17.17
2018-06-01T04:40:48.677Z,17.21
2018-06-01T04:43:17.068Z,17.37
2018-06-01T04:45:45.394Z,17.37
2018-06-01T04:48:13.742Z,17.41
2018-06-01T04:50:42.273Z,17.40
2018-06-01T04:53:10.645Z,17.36
2018-06-01T04:55:38.968Z,17.46
2018-06-01T04:58:09.681Z,17.50
2018-06-01T05:00:37.999Z,17.58
2018-06-01T05:03:06.332Z,17.61
2018-06-01T05:05:35.202Z,17.66
2018-06-01T05:08:03.552Z,17.53
2018-06-01T05:10:31.856Z,17.63
2018-06-01T05:13:00.651Z,17.80
2018-06-01T05:15:28.974Z,17.80
2018-06-01T05:17:57.296Z,17.90
2018-06-01T05:20:26.595Z,18.06
2018-06-01T05:22:54.943Z,18.18
2018-06-01T05:25:23.264Z,18.25
2018-06-01T05:27:52.727Z,18.28
2018-06-01T05:30:21.225Z,18.41
2018-06-01T05:32:49.543Z,18.54
2018-06-01T05:35:18.496Z,18.67
2018-06-01T05:37:46.841Z,18.85
2018-06-01T05:40:15.134Z,18.88
2018-06-01T05:42:43.492Z,18.96
2018-06-01T05:45:11.825Z,19.03
2018-06-01T05:47:40.178Z,19.09
2018-06-01T05:50:09.277Z,18.99
2018-06-01T05:52:37.593Z,18.93
2018-06-01T05:55:05.893Z,18.93
2018-06-01T05:57:34.250Z,19.16
2018-06-01T06:00:02.559Z,19.06
2018-06-01T06:02:30.883Z,19.14
2018-06-01T06:04:59.552Z,19.18
2018-06-01T06:07:28.017Z,19.40
2018-06-01T06:09:56.310Z,19.51
2018-06-01T06:12:25.434Z,19.53
2018-06-01T06:14:53.748Z,19.65
2018-06-01T06:17:22.122Z,19.63
2018-06-01T06:19:50.920Z,19.49
2018-06-01T06:22:19.208Z,19.61
2018-06-01T06:24:47.724Z,19.64
2018-06-01T06:27:16.859Z,19.79
2018-06-01T06:29:45.241Z,20.02
2018-06-01T06:32:13.629Z,19.97
2018-06-01T06:34:41.977Z,19.74
2018-06-01T06:37:10.283Z,19.69
2018-06-01T06:39:38.603Z,19.81
2018-06-01T06:42:08.049Z,19.70
2018-06-01T06:44:36.343Z,19.79
2018-06-01T06:47:04.674Z,19.85
2018-06-01T06:49:33.001Z,19.82
2018-06-01T06:52:01.341Z,19.84
2018-06-01T06:54:29.637Z,19.83
2018-06-01T06:56:58.537Z,20.12
2018-06-01T06:59:26.841Z,20.13
2018-06-01T07:01:55.165Z,20.28
2018-06-01T07:04:24.273Z,20.55
2018-06-01T07:06:52.637Z,20.63
2018-06-01T07:09:20.958Z,20.75
2018-06-01T07:11:49.338Z,20.66
2018-06-01T07:14:18.028Z,20.53
2018-06-01T07:16:46.417Z,20.69
2018-06-01T07:19:14.771Z,20.77
2018-06-01T07:21:43.078Z,20.49
2018-06-01T07:24:11.400Z,20.78
2018-06-01T07:26:39.778Z,20.87
2018-06-01T07:29:08.074Z,20.96
2018-06-01T07:31:36.401Z,21.27
2018-06-01T07:34:04.733Z,21.35
2018-06-01T07:36:33.041Z,21.19
2018-06-01T07:39:01.369Z,21.10
2018-06-01T07:41:30.417Z,21.26
2018-06-01T07:43:58.759Z,21.18
2018-06-01T07:46:27.092Z,21.23
2018-06-01T07:48:55.521Z,21.48
2018-06-01T07:51:23.875Z,21.48
2018-06-01T07:53:52.320Z,21.55
2018-06-01T07:56:20.713Z,21.65
2018-06-01T07:58:49.039Z,21.98
2018-06-01T08:01:17.487Z,22.00
2018-06-01T08:03:45.949Z,21.90
2018-06-01T08:06:14.270Z,21.84
2018-06-01T08:08:42.593Z,21.82
2018-06-01T08:11:11.467Z,21.72
2018-06-01T08:13:39.766Z,21.78
2018-06-01T08:16:08.078Z,21.89
2018-06-01T08:18:36.663Z,21.87
2018-06-01T08:21:04.965Z,22.12
2018-06-01T08:23:33.292Z,22.31
2018-06-01T08:26:02.684Z,22.25
2018-06-01T08:28:31.012Z,22.51
2018-06-01T08:30:59.318Z,22.58
2018-06-01T08:33:28.178Z,22.68
2018-06-01T08:35:56.555Z,22.52
2018-06-01T08:38:24.896Z,22.48
2018-06-01T08:40:53.246Z,22.72
2018-06-01T08:43:21.575Z,22.93
2018-06-01T08:45:49.901Z,22.97
2018-06-01T08:48:18.327Z,22.90
2018-06-01T08:50:46.685Z,22.86
2018-06-01T08:53:15.010Z,23.04
2018-06-01T08:55:43.613Z,23.15
2018-06-01T08:58:11.961Z,23.37
2018-06-01T09:00:40.246Z,23.48
2018-06-01T09:03:08.595Z,23.42
2018-06-01T09:05:37.769Z,23.60
2018-06-01T09:08:06.071Z,23.17
2018-06-01T09:10:35.182Z,23.36
2018-06-01T09:13:03.521Z,23.60
2018-06-01T09:15:31.849Z,23.43
2018-06-01T09:18:00.359Z,22.97
2018-06-01T09:20:28.661Z,23.07
2018-06-01T09:22:56.994Z,23.45
2018-06-01T09:25:25.376Z,23.77
2018-06-01T09:27:53.800Z,24.11
2018-06-01T09:30:22.190Z,23.91
2018-06-01T09:32:51.189Z,24.15
2018-06-01T09:35:19.542Z,23.86
2018-06-01T09:37:47.926Z,23.76
2018-06-01T09:40:16.482Z,24.17
2018-06-01T09:42:44.809Z,24.41
2018-06-01T09:45:13.111Z,24.43
2018-06-01T09:47:41.462Z,25.75
2018-06-01T09:50:09.761Z,26.20
2018-06-01T09:52:38.090Z,26.43
2018-06-01T09:55:06.508Z,25.61
2018-06-01T09:57:34.805Z,26.65
2018-06-01T10:00:03.111Z,26.63
2018-06-01T10:02:32.849Z,26.07
2018-06-01T10:05:01.187Z,26.78
2018-06-01T10:07:29.503Z,27.37
2018-06-01T10:10:03.524Z,27.52
2018-06-01T10:12:31.838Z,26.83
2018-06-01T10:15:00.148Z,27.04
2018-06-01T10:17:28.809Z,27.52
2018-06-01T10:19:57.121Z,27.21
2018-06-01T10:22:25.465Z,27.12
2018-06-01T10:24:53.882Z,25.62
2018-06-01T10:27:22.237Z,25.80
2018-06-01T10:29:50.645Z,26.46
2018-06-01T10:32:19.057Z,27.32
2018-06-01T10:34:47.493Z,27.23
2018-06-01T10:37:15.836Z,26.96
2018-06-01T10:39:45.173Z,27.55
2018-06-01T10:42:13.485Z,28.19
2018-06-01T10:44:41.823Z,27.21
2018-06-01T10:47:10.542Z,27.47
2018-06-01T10:49:38.890Z,27.87
2018-06-01T10:52:07.948Z,28.21
2018-06-01T10:54:36.659Z,27.74
2018-06-01T10:57:05.053Z,28.13
2018-06-01T10:59:33.394Z,26.78
2018-06-01T11:02:01.905Z,26.32
2018-06-01T11:04:30.225Z,26.11
2018-06-01T11:06:58.557Z,26.00
2018-06-01T11:09:28.147Z,26.83
2018-06-01T11:11:56.579Z,27.16
2018-06-01T11:14:24.981Z,27.18
2018-06-01T11:16:53.730Z,26.97
2018-06-01T11:19:22.063Z,26.06
2018-06-01T11:21:50.431Z,26.56
2018-06-01T11:24:19.513Z,27.37
2018-06-01T11:26:47.900Z,27.08
2018-06-01T11:29:16.310Z,26.62
2018-06-01T11:31:45.248Z,27.26
2018-06-01T11:34:13.553Z,27.84
2018-06-01T11:36:41.861Z,27.54
2018-06-01T11:39:10.262Z,27.49
2018-06-01T11:41:39.184Z,27.45
2018-06-01T11:44:07.498Z,26.92
2018-06-01T11:46:36.428Z,26.99
2018-06-01T11:49:04.733Z,27.37
2018-06-01T11:51:33.054Z,27.14
2018-06-01T11:54:01.964Z,27.71
2018-06-01T11:56:30.275Z,28.27
2018-06-01T11:58:58.596Z,28.20
2018-06-01T12:01:27.221Z,28.82
2018-06-01T12:03:55.616Z,28.82
2018-06-01T12:06:23.952Z,27.97
2018-06-01T12:08:52.907Z,28.07
2018-06-01T12:11:21.247Z,28.98
2018-06-01T12:13:49.602Z,29.42
2018-06-01T12:16:18.073Z,29.58
2018-06-01T12:18:46.475Z,29.13
2018-06-01T12:21:14.808Z,28.49
2018-06-01T12:23:43.368Z,28.03
2018-06-01T12:26:11.682Z,27.83
2018-06-01T12:28:39.977Z,28.41
2018-06-01T12:31:08.311Z,28.59
2018-06-01T12:33:36.625Z,28.77
2018-06-01T12:36:04.930Z,28.67
2018-06-01T12:38:33.902Z,28.41
2018-06-01T12:41:02.245Z,29.50
2018-06-01T12:43:30.556Z,29.37
2018-06-01T12:45:58.928Z,29.54
2018-06-01T12:48:27.258Z,29.87
2018-06-01T12:50:55.637Z,30.08
2018-06-01T12:53:24.108Z,29.94
2018-06-01T12:55:52.466Z,30.60
2018-06-01T12:58:20.820Z,30.80
2018-06-01T13:00:49.265Z,30.95
2018-06-01T13:03:17.626Z,30.56
2018-06-01T13:05:46.023Z,31.15
2018-06-01T13:08:14.360Z,31.52
2018-06-01T13:10:42.689Z,30.70
2018-06-01T13:13:12.485Z,29.53
2018-06-01T13:15:41.166Z,30.01
2018-06-01T13:18:09.535Z,29.38
2018-06-01T13:20:37.939Z,29.30
2018-06-01T13:23:06.212Z,30.24
2018-06-01T13:25:34.562Z,30.37
2018-06-01T13:28:02.872Z,30.78
2018-06-01T13:30:31.209Z,30.27
2018-06-01T13:32:59.509Z,29.46
2018-06-01T13:35:27.888Z,30.06
2018-06-01T13:37:56.167Z,30.09
2018-06-01T13:40:24.540Z,30.29
2018-06-01T13:42:52.916Z,29.82
2018-06-01T13:45:21.736Z,30.20
2018-06-01T13:47:50.065Z,30.64
2018-06-01T13:50:18.421Z,30.53
2018-06-01T13:52:46.777Z,30.55
2018-06-01T13:55:15.129Z,29.69
2018-06-01T13:57:43.454Z,29.89
2018-06-01T14:00:11.873Z,30.36
2018-06-01T14:02:40.171Z,30.65
2018-06-01T14:05:08.489Z,31.71
2018-06-01T14:07:36.816Z,31.61
2018-06-01T14:10:05.146Z,31.20
2018-06-01T14:12:33.446Z,30.43
2018-06-01T14:15:01.972Z,30.24
2018-06-01T14:17:30.273Z,29.96
2018-06-01T14:19:58.589Z,29.29
2018-06-01T14:22:26.969Z,29.03
2018-06-01T14:24:55.311Z,29.64
2018-06-01T14:27:23.745Z,28.84
2018-06-01T14:29:52.175Z,29.16
2018-06-01T14:32:20.485Z,28.31
2018-06-01T14:34:48.818Z,29.41
2018-06-01T14:37:18.021Z,28.89
2018-06-01T14:39:46.387Z,28.46
2018-06-01T14:42:14.712Z,27.99
2018-06-01T14:44:44.403Z,27.64
2018-06-01T14:47:12.774Z,26.81
2018-06-01T14:49:41.380Z,27.85
2018-06-01T14:52:10.253Z,29.07
2018-06-01T14:54:38.576Z,29.99
2018-06-01T14:57:06.883Z,30.53
2018-06-01T14:59:36.022Z,30.85
2018-06-01T15:02:04.325Z,30.82
2018-06-01T15:04:32.653Z,31.10
2018-06-01T15:07:01.042Z,31.11
2018-06-01T15:09:29.359Z,31.29
2018-06-01T15:11:57.773Z,29.68
2018-06-01T15:14:26.124Z,30.18
2018-06-01T15:16:54.409Z,30.39
2018-06-01T15:19:22.917Z,30.28
2018-06-01T15:21:51.575Z,28.24
2018-06-01T15:24:19.907Z,28.07
2018-06-01T15:26:48.290Z,28.86
2018-06-01T15:29:16.924Z,27.69
2018-06-01T15:31:45.262Z,27.26
2018-06-01T15:34:13.596Z,27.94
2018-06-01T15:36:41.937Z,27.59
2018-06-01T15:39:10.237Z,27.43
2018-06-01T15:41:38.557Z,26.97
2018-06-01T15:44:07.687Z,27.05
2018-06-01T15:46:36.007Z,26.97
2018-06-01T15:49:04.373Z,27.41
2018-06-01T15:51:32.665Z,29.05
2018-06-01T15:54:01.004Z,27.86
2018-06-01T15:56:29.309Z,27.35
2018-06-01T15:58:58.546Z,28.01
2018-06-01T16:01:26.887Z,28.86
2018-06-01T16:03:55.236Z,27.83
2018-06-01T16:06:23.888Z,28.76
2018-06-01T16:08:52.261Z,29.21
2018-06-01T16:11:20.638Z,29.57
2018-06-01T16:13:49.634Z,29.24
2018-06-01T16:16:18.033Z,29.31
2018-06-01T16:18:46.705Z,29.58
2018-06-01T16:21:15.073Z,29.12
2018-06-01T16:23:43.424Z,29.20
2018-06-01T16:26:11.721Z,28.81
2018-06-01T16:28:40.123Z,28.61
2018-06-01T16:31:08.410Z,28.18
2018-06-01T16:33:36.745Z,27.59
2018-06-01T16:36:05.116Z,27.25
2018-06-01T16:38:33.459Z,27.57
2018-06-01T16:41:01.778Z,27.94
2018-06-01T16:43:30.261Z,27.73
2018-06-01T16:45:58.557Z,27.52
2018-06-01T16:48:26.898Z,27.84
2018-06-01T16:50:56.250Z,27.67
2018-06-01T16:53:24.656Z,27.68
2018-06-01T16:55:53.038Z,27.43
2018-06-01T16:58:21.420Z,27.42
2018-06-01T17:00:49.796Z,26.92
2018-06-01T17:03:18.139Z,26.69
2018-06-01T17:05:46.621Z,26.39
2018-06-01T17:08:14.962Z,26.08
2018-06-01T17:10:43.284Z,26.59
2018-06-01T17:13:11.652Z,26.99
2018-06-01T17:15:40.011Z,26.93
2018-06-01T17:18:08.479Z,26.24
2018-06-01T17:20:37.198Z,25.88
2018-06-01T17:23:05.543Z,25.95
2018-06-01T17:25:33.884Z,25.95
2018-06-01T17:28:02.222Z,25.95
2018-06-01T17:30:30.543Z,25.66
2018-06-01T17:32:58.898Z,25.35
2018-06-01T17:35:27.269Z,25.48
2018-06-01T17:37:56.202Z,25.29
2018-06-01T17:40:24.667Z,25.17
2018-06-01T17:42:53.141Z,25.11
2018-06-01T17:45:21.545Z,25.43
2018-06-01T17:47:49.985Z,25.97
2018-06-01T17:50:18.707Z,26.32
2018-06-01T17:52:47.089Z,26.52
2018-06-01T17:55:15.541Z,26.59
2018-06-01T17:57:45.222Z,26.38
2018-06-01T18:00:13.594Z,26.24
2018-06-01T18:02:41.929Z,26.09
2018-06-01T18:05:10.736Z,26.08
2018-06-01T18:07:39.155Z,26.17
2018-06-01T18:10:07.504Z,26.21
2018-06-01T18:12:35.872Z,25.91
2018-06-01T18:15:04.218Z,25.51
2018-06-01T18:17:32.524Z,25.48
2018-06-01T18:20:01.301Z,25.34
2018-06-01T18:22:29.680Z,25.34
2018-06-01T18:24:57.926Z,25.13
2018-06-01T18:27:26.381Z,25.00
2018-06-01T18:29:54.767Z,24.96
2018-06-01T18:32:23.096Z,24.80
2018-06-01T18:34:51.545Z,24.70
2018-06-01T18:37:19.965Z,24.70
2018-06-01T18:39:48.369Z,24.44
2018-06-01T18:42:17.138Z,24.34
2018-06-01T18:44:45.491Z,24.26
2018-06-01T18:47:14.041Z,24.27
2018-06-01T18:49:42.431Z,24.16
2018-06-01T18:52:10.755Z,24.09
2018-06-01T18:54:39.137Z,24.00
2018-06-01T18:57:08.253Z,23.92
2018-06-01T18:59:36.529Z,23.85
2018-06-01T19:02:04.924Z,23.71
2018-06-01T19:04:33.269Z,23.66
2018-06-01T19:07:01.594Z,23.54
2018-06-01T19:09:29.916Z,23.48
2018-06-01T19:11:58.657Z,23.37
2018-06-01T19:14:26.971Z,23.19
2018-06-01T19:16:55.319Z,23.07
2018-06-01T19:19:23.833Z,22.98
2018-06-01T19:21:52.258Z,22.86
2018-06-01T19:24:20.803Z,22.86
2018-06-01T19:26:49.865Z,22.89
2018-06-01T19:29:18.264Z,22.79
2018-06-01T19:31:46.668Z,22.84
2018-06-01T19:34:15.118Z,22.89
2018-06-01T19:36:43.457Z,22.70
2018-06-01T19:39:11.776Z,22.61
2018-06-01T19:41:40.161Z,22.50
2018-06-01T19:44:08.464Z,22.39
2018-06-01T19:46:36.775Z,22.17
2018-06-01T19:49:05.092Z,22.12
2018-06-01T19:51:33.471Z,22.13
2018-06-01T19:54:01.775Z,22.07
2018-06-01T19:56:30.722Z,22.03
2018-06-01T19:58:59.075Z,22.02
2018-06-01T20:01:27.398Z,21.88
2018-06-01T20:03:55.840Z,21.95
2018-06-01T20:06:24.278Z,21.99
2018-06-01T20:08:52.656Z,21.99
2018-06-01T20:11:21.840Z,21.83
2018-06-01T20:13:50.233Z,21.83
2018-06-01T20:16:18.605Z,21.78
2018-06-01T20:18:46.985Z,21.69
2018-06-01T20:21:15.333Z,21.61
2018-06-01T20:23:43.647Z,21.65
2018-06-01T20:26:12.012Z,21.63
2018-06-01T20:28:40.301Z,21.39
2018-06-01T20:31:08.628Z,21.11
2018-06-01T20:33:37.200Z,20.94
2018-06-01T20:36:05.561Z,20.78
2018-06-01T20:38:33.877Z,20.82
2018-06-01T20:41:02.198Z,20.88
2018-06-01T20:43:30.825Z,20.80
2018-06-01T20:45:59.528Z,20.82
2018-06-01T20:48:29.902Z,20.80
2018-06-01T20:50:58.259Z,20.69
2018-06-01T20:53:26.549Z,20.81
2018-06-01T20:55:55.007Z,20.82
2018-06-01T20:58:23.387Z,20.82
2018-06-01T21:00:52.034Z,20.91
2018-06-01T21:03:21.976Z,20.98
2018-06-01T21:05:50.804Z,21.02
2018-06-01T21:08:19.293Z,21.07
2018-06-01T21:10:47.865Z,21.23
2018-06-01T21:13:17.224Z,21.23
2018-06-01T21:15:45.586Z,21.24
2018-06-01T21:18:14.719Z,21.12
2018-06-01T21:20:43.904Z,21.03
2018-06-01T21:23:12.292Z,20.94
2018-06-01T21:25:40.633Z,20.90
2018-06-01T21:28:08.954Z,20.97
2018-06-01T21:30:37.286Z,21.00
2018-06-01T21:33:05.618Z,21.03
2018-06-01T21:35:33.913Z,20.98
2018-06-01T21:38:02.234Z,20.96
2018-06-01T21:40:31.580Z,20.93
2018-06-01T21:42:59.897Z,20.85
2018-06-01T21:45:28.226Z,20.64
2018-06-01T21:47:57.061Z,20.51
2018-06-01T21:50:25.442Z,20.61
2018-06-01T21:52:53.896Z,20.73
2018-06-01T21:55:22.250Z,20.68
2018-06-01T21:57:50.638Z,20.80
2018-06-01T22:00:19.039Z,20.73
2018-06-01T22:02:47.387Z,20.78
2018-06-01T22:05:17.482Z,20.72
2018-06-01T22:07:45.807Z,20.72
2018-06-01T22:10:14.160Z,20.70
2018-06-01T22:12:42.478Z,20.78
2018-06-01T22:15:10.772Z,20.78
2018-06-01T22:17:39.671Z,20.62
2018-06-01T22:20:08.001Z,20.26
2018-06-01T22:22:36.334Z,20.19
2018-06-01T22:25:05.460Z,20.29
2018-06-01T22:27:33.749Z,20.39
2018-06-01T22:30:02.071Z,20.33
2018-06-01T22:32:31.154Z,20.17
2018-06-01T22:34:59.462Z,20.32
2018-06-01T22:37:27.806Z,20.38
2018-06-01T22:39:56.169Z,20.16
2018-06-01T22:42:24.538Z,20.19
2018-06-01T22:44:52.898Z,20.20
2018-06-01T22:47:21.257Z,20.00
2018-06-01T22:49:49.597Z,20.09
2018-06-01T22:52:18.077Z,20.04
2018-06-01T22:54:46.618Z,20.00
2018-06-01T22:57:14.935Z,20.12
2018-06-01T22:59:44.274Z,20.16
2018-06-01T23:02:12.606Z,20.06
2018-06-01T23:04:40.968Z,20.15
2018-06-01T23:07:09.275Z,20.13
2018-06-01T23:09:37.713Z,20.19
2018-06-01T23:12:06.024Z,20.20
2018-06-01T23:14:34.427Z,20.11
2018-06-01T23:17:02.698Z,19.79
2018-06-01T23:19:31.022Z,19.58
2018-06-01T23:21:59.384Z,19.53
2018-06-01T23:24:27.737Z,19.50
2018-06-01T23:26:56.091Z,19.48
2018-06-01T23:29:24.451Z,19.49
2018-06-01T23:31:52.829Z,19.69
2018-06-01T23:34:21.127Z,19.74
2018-06-01T23:36:49.573Z,19.78
2018-06-01T23:39:17.967Z,19.79
2018-06-01T23:41:46.311Z,19.78
2018-06-01T23:44:14.620Z,19.79
2018-06-01T23:46:44.155Z,19.81
2018-06-01T23:49:12.465Z,19.86
2018-06-01T23:51:40.788Z,19.80
2018-06-01T23:54:10.034Z,19.73
2018-06-01T23:56:38.336Z,19.80
2018-06-01T23:59:06.664Z,19.80
